Sitc Shimizu — VRLG2 — position and weather

sailwx.info

Track history (hours):
 
Tides and Currents Weather Stations Pressure Air Temp Water Temp Dewpoint Dewpoint Depression Visibility Wind Speed Wind Dir Waves Ship Positions

Sitc Shimizu

Last reported at 2018-Jun-22 11:33 UTC. Time now 2018-Jun-24 20:30 UTC.
Position N 22°30' E 119°48'.

Length 143 m; draft 7.4 m.

Type: Ship (hazmat cat D). MMSI: 477335600.

Date/timePositionNaut miles runAvg speedWind from/ knotsBaromVisibWave heightAir tempDewpointWater temp
2018-Jun-22 11:33N 22°30' E 119°48'114.1
2018-Jun-22 11:27N 22°31' E 119°48'714.3
2018-Jun-22 11:00N 22°37' E 119°50'714.4
2018-Jun-22 10:30N 22°44' E 119°52'714.2
2018-Jun-22 10:00N 22°51' E 119°54'50813.9
2018-Jun-20 21:35N 30°59' E 122°29'313.6
2018-Jun-20 21:20N 31°00' E 122°26'513.1
2018-Jun-20 21:00N 31°02' E 122°21'612.3
2018-Jun-20 20:29N 31°02' E 122°13'4 7.9
2018-Jun-20 20:00N 31°03' E 122°09'611.5
2018-Jun-20 19:30N 31°04' E 122°02'611.3
2018-Jun-20 19:00N 31°07' E 121°56'12 1.1
2018-Jun-20 08:24N 31°15' E 121°47'713.9
2018-Jun-20 07:53N 31°09' E 121°52'513.1
2018-Jun-20 07:30N 31°07' E 121°57'712.8
2018-Jun-20 06:59N 31°04' E 122°05'  
2018-Jun-16 19:33N 35°03' E 129°08'112.7
2018-Jun-16 19:30N 35°03' E 129°08'4 8.4
2018-Jun-16 19:00N 35°06' E 129°04'0 0.3
2018-Jun-16 18:29N 35°06' E 129°04'0 0.0
2018-Jun-16 17:59N 35°06' E 129°04'0 0.0
2018-Jun-16 17:29N 35°06' E 129°04'0 0.0
2018-Jun-16 16:59N 35°06' E 129°04'0 0.0
2018-Jun-16 16:29N 35°06' E 129°04'0 0.0
2018-Jun-16 15:59N 35°06' E 129°04'0 0.0
2018-Jun-16 15:29N 35°06' E 129°04'0 0.0
2018-Jun-16 14:59N 35°06' E 129°04'0 0.0
2018-Jun-16 14:29N 35°06' E 129°04'0 0.0
2018-Jun-16 13:59N 35°06' E 129°04'0 0.0
2018-Jun-16 13:29N 35°06' E 129°04'0 0.0
2018-Jun-16 12:59N 35°06' E 129°04'0 0.0
2018-Jun-16 12:29N 35°06' E 129°04'0 0.0
2018-Jun-16 11:59N 35°06' E 129°04'0 0.0
2018-Jun-16 11:29N 35°06' E 129°04'0 0.0
2018-Jun-16 11:00N 35°06' E 129°04'3 5.7
2018-Jun-16 10:31N 35°05' E 129°07'51511.7
2018-Jun-14 14:26N 35°02' E 139°37'715.5
2018-Jun-14 14:01N 35°07' E 139°43'714.8
2018-Jun-14 13:30N 35°14' E 139°46'612.0
2018-Jun-14 13:00N 35°19' E 139°43'510.8
2018-Jun-14 12:30N 35°24' E 139°41'0 0.7
2018-Jun-14 11:59N 35°24' E 139°41'0 0.0
2018-Jun-14 11:29N 35°24' E 139°41'0 0.0
2018-Jun-14 10:59N 35°24' E 139°41'0 0.0
2018-Jun-14 10:29N 35°24' E 139°41'0 0.0
2018-Jun-14 09:59N 35°24' E 139°41'0 0.0
2018-Jun-14 09:29N 35°24' E 139°41'0 0.0
2018-Jun-14 08:59N 35°24' E 139°41'0 0.0
2018-Jun-14 08:29N 35°24' E 139°41'0 0.0
2018-Jun-14 07:59N 35°24' E 139°41'0 0.7
2018-Jun-14 07:30N 35°24' E 139°41'2 3.9
2018-Jun-14 07:00N 35°22' E 139°42'510.1
2018-Jun-14 06:31N 35°18' E 139°45'611.7
2018-Jun-14 06:00N 35°12' E 139°47'  
Track history (hours):
 
Tides and Currents Weather Stations Pressure Air Temp Water Temp Dewpoint Dewpoint Depression Visibility Wind Speed Wind Dir Waves Ship Positions

Sitc Shimizu

Last reported at 2018-Jun-22 11:33 UTC. Time now 2018-Jun-24 20:30 UTC.
Position N 22°30' E 119°48'.

Length 143 m; draft 7.4 m.

Type: Ship (hazmat cat D). MMSI: 477335600.

Date/timePositionNaut miles runAvg speedWind from/ knotsBaromVisibWave heightAir tempDewpointWater temp
2018-Jun-22 11:33N 22°30' E 119°48'114.1
2018-Jun-22 11:27N 22°31' E 119°48'714.3
2018-Jun-22 11:00N 22°37' E 119°50'714.4
2018-Jun-22 10:30N 22°44' E 119°52'714.2
2018-Jun-22 10:00N 22°51' E 119°54'50813.9
2018-Jun-20 21:35N 30°59' E 122°29'313.6
2018-Jun-20 21:20N 31°00' E 122°26'513.1
2018-Jun-20 21:00N 31°02' E 122°21'612.3
2018-Jun-20 20:29N 31°02' E 122°13'4 7.9
2018-Jun-20 20:00N 31°03' E 122°09'611.5
2018-Jun-20 19:30N 31°04' E 122°02'611.3
2018-Jun-20 19:00N 31°07' E 121°56'12 1.1
2018-Jun-20 08:24N 31°15' E 121°47'713.9
2018-Jun-20 07:53N 31°09' E 121°52'513.1
2018-Jun-20 07:30N 31°07' E 121°57'712.8
2018-Jun-20 06:59N 31°04' E 122°05'  
2018-Jun-16 19:33N 35°03' E 129°08'112.7
2018-Jun-16 19:30N 35°03' E 129°08'4 8.4
2018-Jun-16 19:00N 35°06' E 129°04'0 0.3
2018-Jun-16 18:29N 35°06' E 129°04'0 0.0
2018-Jun-16 17:59N 35°06' E 129°04'0 0.0
2018-Jun-16 17:29N 35°06' E 129°04'0 0.0
2018-Jun-16 16:59N 35°06' E 129°04'0 0.0
2018-Jun-16 16:29N 35°06' E 129°04'0 0.0
2018-Jun-16 15:59N 35°06' E 129°04'0 0.0
2018-Jun-16 15:29N 35°06' E 129°04'0 0.0
2018-Jun-16 14:59N 35°06' E 129°04'0 0.0
2018-Jun-16 14:29N 35°06' E 129°04'0 0.0
2018-Jun-16 13:59N 35°06' E 129°04'0 0.0
2018-Jun-16 13:29N 35°06' E 129°04'0 0.0
2018-Jun-16 12:59N 35°06' E 129°04'0 0.0
2018-Jun-16 12:29N 35°06' E 129°04'0 0.0
2018-Jun-16 11:59N 35°06' E 129°04'0 0.0
2018-Jun-16 11:29N 35°06' E 129°04'0 0.0
2018-Jun-16 11:00N 35°06' E 129°04'3 5.7
2018-Jun-16 10:31N 35°05' E 129°07'51511.7
2018-Jun-14 14:26N 35°02' E 139°37'715.5
2018-Jun-14 14:01N 35°07' E 139°43'714.8
2018-Jun-14 13:30N 35°14' E 139°46'612.0
2018-Jun-14 13:00N 35°19' E 139°43'510.8
2018-Jun-14 12:30N 35°24' E 139°41'0 0.7
2018-Jun-14 11:59N 35°24' E 139°41'0 0.0
2018-Jun-14 11:29N 35°24' E 139°41'0 0.0
2018-Jun-14 10:59N 35°24' E 139°41'0 0.0
2018-Jun-14 10:29N 35°24' E 139°41'0 0.0
2018-Jun-14 09:59N 35°24' E 139°41'0 0.0
2018-Jun-14 09:29N 35°24' E 139°41'0 0.0
2018-Jun-14 08:59N 35°24' E 139°41'0 0.0
2018-Jun-14 08:29N 35°24' E 139°41'0 0.0
2018-Jun-14 07:59N 35°24' E 139°41'0 0.7
2018-Jun-14 07:30N 35°24' E 139°41'2 3.9
2018-Jun-14 07:00N 35°22' E 139°42'510.1
2018-Jun-14 06:31N 35°18' E 139°45'611.7
2018-Jun-14 06:00N 35°12' E 139°47'  

Dump ship's entire track history